createdAt,value
2022-10-24T05:42:34.476Z,101704.50
2022-10-24T05:47:32.395Z,101752.63
2022-10-24T05:52:29.978Z,101753.75
2022-10-24T05:57:30.194Z,101749.03
2022-10-24T06:02:29.593Z,101729.97
2022-10-24T06:07:31.780Z,101752.06
2022-10-24T06:12:31.320Z,101767.19
2022-10-24T06:17:32.671Z,101751.53
2022-10-24T06:22:31.547Z,101759.91
2022-10-24T06:27:30.796Z,101745.91
2022-10-24T06:32:31.130Z,101756.63
2022-10-24T06:37:31.859Z,101776.53
2022-10-24T06:42:38.902Z,101785.66
2022-10-24T06:47:37.908Z,101751.66
2022-10-24T06:52:37.473Z,101752.22
2022-10-24T06:57:36.561Z,101753.41
2022-10-24T07:02:36.080Z,101743.19
2022-10-24T07:07:34.061Z,101771.00
2022-10-24T07:12:31.508Z,101795.59
2022-10-24T07:17:31.901Z,101770.88
2022-10-24T07:22:32.636Z,101779.19
2022-10-24T07:27:33.635Z,101796.47
2022-10-24T07:32:32.481Z,101777.91
2022-10-24T07:37:30.060Z,101754.66
2022-10-24T07:42:29.370Z,101783.50
2022-10-24T07:47:28.182Z,101772.75
2022-10-24T07:52:27.564Z,101765.28
2022-10-24T07:57:27.005Z,101733.28
2022-10-24T08:02:27.347Z,101755.66
2022-10-24T08:07:26.815Z,101740.50
2022-10-24T08:12:25.661Z,101736.09
2022-10-24T08:17:25.667Z,101749.09
2022-10-24T08:22:27.530Z,101750.88
2022-10-24T08:27:26.378Z,101757.28
2022-10-24T08:32:29.569Z,101743.63
2022-10-24T08:37:32.754Z,101758.88
2022-10-24T08:42:37.776Z,101784.22
2022-10-24T08:47:45.871Z,101778.41
2022-10-24T08:53:01.303Z,101724.66
2022-10-24T08:58:03.849Z,101751.69
2022-10-24T09:03:55.584Z,101758.78
2022-10-24T09:09:18.092Z,101760.78
2022-10-24T09:14:21.942Z,101720.59
2022-10-24T09:19:28.474Z,101713.63
2022-10-24T09:24:51.440Z,101701.28
2022-10-24T09:29:52.447Z,101694.59
2022-10-24T09:34:53.085Z,101735.72
2022-10-24T09:40:19.194Z,101726.84
2022-10-24T09:45:33.762Z,101744.44
2022-10-24T09:50:40.363Z,101712.81
2022-10-24T09:55:48.629Z,101734.66
2022-10-24T10:01:00.078Z,101675.41
2022-10-24T10:06:09.135Z,101695.34
2022-10-24T10:11:12.250Z,101684.00
2022-10-24T10:16:28.743Z,101666.56
2022-10-24T10:21:55.115Z,101664.22
2022-10-24T10:26:52.894Z,101665.69
2022-10-24T10:32:10.022Z,101695.91
2022-10-24T10:37:32.174Z,101667.22
2022-10-24T10:42:46.700Z,101663.19
2022-10-24T10:48:10.189Z,101684.38
2022-10-24T10:53:37.373Z,101670.31
2022-10-24T10:59:07.635Z,101656.06
2022-10-24T11:04:36.176Z,101673.81
2022-10-24T11:09:44.094Z,101642.00
2022-10-24T11:15:10.420Z,101655.78
2022-10-24T11:20:33.892Z,101602.63
2022-10-24T11:25:49.956Z,101629.47
2022-10-24T11:31:12.302Z,101621.88
2022-10-24T11:36:56.068Z,101630.13
2022-10-24T11:42:14.896Z,101628.06
2022-10-24T11:47:26.851Z,101627.59
2022-10-24T11:52:29.876Z,101592.78
2022-10-24T11:57:30.334Z,101601.25
2022-10-24T12:02:55.636Z,101569.56
2022-10-24T12:08:29.306Z,101619.28
2022-10-24T12:13:38.778Z,101597.97
2022-10-24T12:18:45.227Z,101587.78
2022-10-24T12:23:44.894Z,101556.81
2022-10-24T12:28:43.905Z,101577.84
2022-10-24T12:33:43.828Z,101564.56
2022-10-24T12:38:44.411Z,101572.19
2022-10-24T12:43:47.888Z,101528.63
2022-10-24T12:49:16.186Z,101535.50
2022-10-24T12:54:17.147Z,101556.56
2022-10-24T12:59:24.759Z,101522.66
2022-10-24T13:05:00.746Z,101554.63
2022-10-24T13:10:05.976Z,101549.03
2022-10-24T13:15:29.614Z,101498.03
2022-10-24T13:20:41.594Z,101510.31
2022-10-24T13:25:40.609Z,101542.97
2022-10-24T13:31:11.475Z,101530.97
2022-10-24T13:36:12.663Z,101538.22
2022-10-24T13:41:43.409Z,101491.53
2022-10-24T13:46:55.732Z,101481.88
2022-10-24T13:52:00.206Z,101484.28
2022-10-24T13:57:02.899Z,101488.25
2022-10-24T14:02:07.990Z,101508.69
2022-10-24T14:07:13.146Z,101482.34
2022-10-24T14:12:27.303Z,101469.00
2022-10-24T14:17:32.076Z,101471.19
2022-10-24T14:22:42.350Z,101464.34
2022-10-24T14:27:42.015Z,101470.56
2022-10-24T14:32:41.942Z,101487.59
2022-10-24T14:37:41.405Z,101482.63
2022-10-24T14:42:39.999Z,101474.41
2022-10-24T14:47:40.299Z,101486.91
2022-10-24T14:52:41.506Z,101447.41
2022-10-24T14:57:41.112Z,101469.25
2022-10-24T15:02:43.138Z,101476.63
2022-10-24T15:07:57.317Z,101474.50
2022-10-24T15:13:21.311Z,101460.13
2022-10-24T15:18:26.464Z,101487.84
2022-10-24T15:23:49.721Z,101452.13
2022-10-24T15:29:08.231Z,101485.19
2022-10-24T15:34:43.161Z,101483.97
2022-10-24T15:39:42.140Z,101486.41
2022-10-24T15:44:40.458Z,101453.88
2022-10-24T15:49:39.271Z,101479.28
2022-10-24T15:54:40.928Z,101435.88
2022-10-24T15:59:42.436Z,101456.88
2022-10-24T16:04:41.515Z,101492.84
2022-10-24T16:09:43.558Z,101479.00
2022-10-24T16:14:48.641Z,101471.66
2022-10-24T16:19:48.355Z,101477.53
2022-10-24T16:24:50.129Z,101459.53
2022-10-24T16:29:55.784Z,101472.59
2022-10-24T16:34:57.685Z,101476.41
2022-10-24T16:40:00.620Z,101464.13
2022-10-24T16:45:03.646Z,101458.19
2022-10-24T16:50:03.326Z,101469.94
2022-10-24T16:55:05.608Z,101450.78
2022-10-24T17:00:09.733Z,101487.00
2022-10-24T17:05:13.163Z,101500.19
2022-10-24T17:10:13.786Z,101466.91
2022-10-24T17:15:16.766Z,101491.06
2022-10-24T17:20:17.595Z,101492.22
2022-10-24T17:25:22.935Z,101513.16
2022-10-24T17:30:36.861Z,101503.69
2022-10-24T17:35:37.443Z,101501.78
2022-10-24T17:40:46.965Z,101487.88
2022-10-24T17:46:00.109Z,101477.66
2022-10-24T17:51:23.136Z,101479.41
2022-10-24T17:56:25.729Z,101472.13
2022-10-24T18:01:44.666Z,101485.63
2022-10-24T18:06:46.173Z,101472.44
2022-10-24T18:11:48.516Z,101492.00
2022-10-24T18:16:54.618Z,101448.94
2022-10-24T18:21:59.458Z,101458.78
2022-10-24T18:26:59.434Z,101451.72
2022-10-24T18:32:27.237Z,101446.03
2022-10-24T18:37:29.259Z,101466.81
2022-10-24T18:43:09.422Z,101476.00
2022-10-24T18:48:10.207Z,101436.78
2022-10-24T18:53:18.908Z,101441.50
2022-10-24T18:58:41.555Z,101469.19
2022-10-24T19:03:57.231Z,101451.94
2022-10-24T19:08:59.035Z,101436.16
2022-10-24T19:14:04.542Z,101438.63
2022-10-24T19:19:06.337Z,101434.97
2022-10-24T19:24:05.001Z,101430.88
2022-10-24T19:29:09.380Z,101443.06
2022-10-24T19:34:10.086Z,101433.88
2022-10-24T19:39:14.953Z,101443.22
2022-10-24T19:44:22.031Z,101431.97
2022-10-24T19:49:24.420Z,101474.38
2022-10-24T19:54:23.345Z,101424.97
2022-10-24T19:59:28.276Z,101424.84
2022-10-24T20:04:27.324Z,101446.47
2022-10-24T20:09:25.903Z,101445.84
2022-10-24T20:14:25.141Z,101436.94
2022-10-24T20:20:04.281Z,101446.56
2022-10-24T20:25:04.169Z,101401.41
2022-10-24T20:30:07.407Z,101415.31
2022-10-24T20:35:09.086Z,101435.81
2022-10-24T20:40:13.151Z,101405.88
2022-10-24T20:45:21.946Z,101417.50
2022-10-24T20:50:31.833Z,101393.28
2022-10-24T20:55:43.444Z,101428.16
2022-10-24T21:00:45.198Z,101392.41
2022-10-24T21:05:46.248Z,101384.66
2022-10-24T21:10:44.751Z,101365.78
2022-10-24T21:15:43.484Z,101408.28
2022-10-24T21:20:41.528Z,101381.25
2022-10-24T21:25:39.400Z,101372.13
2022-10-24T21:30:42.445Z,101352.22
2022-10-24T21:35:40.046Z,101396.56
2022-10-24T21:40:38.843Z,101401.75
2022-10-24T21:45:37.248Z,101365.13
2022-10-24T21:50:34.794Z,101376.75
2022-10-24T21:55:33.298Z,101349.44
2022-10-24T22:00:34.626Z,101358.06
2022-10-24T22:05:35.295Z,101364.53
2022-10-24T22:10:36.326Z,101372.94
2022-10-24T22:15:35.703Z,101340.91
2022-10-24T22:20:40.756Z,101377.06
2022-10-24T22:25:39.999Z,101370.22
2022-10-24T22:30:42.924Z,101385.09
2022-10-24T22:35:51.189Z,101383.59
2022-10-24T22:40:53.544Z,101361.75
2022-10-24T22:46:25.781Z,101357.53
2022-10-24T22:51:28.767Z,101367.69
2022-10-24T22:56:34.264Z,101358.09
2022-10-24T23:02:02.525Z,101395.38
2022-10-24T23:07:05.105Z,101391.50
2022-10-24T23:12:16.632Z,101368.84
2022-10-24T23:17:29.732Z,101332.66
2022-10-24T23:22:37.294Z,101344.94
2022-10-24T23:27:43.168Z,101387.50
2022-10-24T23:32:43.918Z,101361.75
2022-10-24T23:37:52.057Z,101361.91
2022-10-24T23:42:55.062Z,101353.44
2022-10-24T23:48:04.486Z,101394.84
2022-10-24T23:53:16.477Z,101351.34
2022-10-24T23:58:15.539Z,101378.19
